Time;durP1;ratioP1;P1;durP2;ratioP2;P2;SDS_P1;SDS_P2;PMS_P1;PMS_P2;Temp;Humidity;BMP_temperature;BMP_pressure;BME280_temperature;BME280_humidity;BME280_pressure;Samples;Min_cycle;Max_cycle;Signal;HPM_P1;HPM_P2
2021/03/02 00:02:18;;;;;;;16.47;8.47;;;3.30;78.40;;;;;;6182592;28;20063;-78
2021/03/02 00:05:20;;;;;;;14.00;8.40;;;3.20;78.70;;;;;;6180987;28;20107;-80
2021/03/02 00:08:21;;;;;;;15.80;9.63;;;3.20;78.60;;;;;;6179908;28;20111;-82
2021/03/02 00:11:24;;;;;;;21.70;9.43;;;3.20;79.00;;;;;;6176972;28;20047;-80
2021/03/02 00:14:26;;;;;;;17.60;9.40;;;3.20;79.50;;;;;;6179171;28;20098;-80
2021/03/02 00:17:31;;;;;;;11.67;7.87;;;3.20;79.20;;;;;;6180372;28;20047;-81
2021/03/02 00:20:35;;;;;;;11.50;7.87;;;3.20;79.20;;;;;;6168120;28;20058;-79
2021/03/02 00:23:42;;;;;;;14.50;9.07;;;3.10;79.90;;;;;;6153718;28;20649;-79
2021/03/02 00:26:49;;;;;;;14.77;9.20;;;3.00;79.80;;;;;;6154152;28;20055;-79
2021/03/02 00:29:52;;;;;;;14.27;9.35;;;3.00;80.50;;;;;;6154849;28;20569;-80
2021/03/02 00:32:53;;;;;;;21.47;10.73;;;2.90;80.10;;;;;;6153556;28;20062;-79
2021/03/02 00:35:55;;;;;;;14.73;9.67;;;2.90;80.30;;;;;;6154838;28;20043;-79
2021/03/02 00:38:56;;;;;;;14.17;10.90;;;2.90;80.70;;;;;;6154710;28;20492;-79
2021/03/02 00:41:57;;;;;;;14.57;9.57;;;2.90;80.80;;;;;;6156158;28;20468;-79
2021/03/02 00:44:59;;;;;;;12.97;9.13;;;2.80;80.60;;;;;;6173861;28;20039;-81
2021/03/02 00:48:01;;;;;;;15.97;8.27;;;2.80;80.70;;;;;;6179881;28;20035;-81
2021/03/02 00:51:02;;;;;;;14.07;8.90;;;2.70;80.80;;;;;;6176788;28;20066;-80
2021/03/02 00:54:04;;;;;;;13.40;8.43;;;2.60;81.20;;;;;;6166961;28;20067;-79
2021/03/02 00:57:06;;;;;;;12.73;9.13;;;2.50;81.40;;;;;;6164261;28;20059;-81
2021/03/02 01:00:09;;;;;;;11.60;8.47;;;2.40;81.50;;;;;;6163322;28;20044;-81
2021/03/02 01:03:11;;;;;;;14.87;8.93;;;2.40;81.90;;;;;;6164041;28;20086;-80
2021/03/02 01:06:12;;;;;;;10.67;7.10;;;2.30;82.00;;;;;;6164847;28;20051;-80
2021/03/02 01:09:14;;;;;;;14.37;8.80;;;2.30;82.40;;;;;;6170669;28;20051;-79
2021/03/02 01:12:15;;;;;;;15.87;8.60;;;2.20;82.70;;;;;;6157453;28;20047;-78
2021/03/02 01:15:17;;;;;;;11.90;7.93;;;2.20;82.60;;;;;;6158055;28;20054;-80
2021/03/02 01:18:19;;;;;;;17.33;9.57;;;2.10;82.60;;;;;;6167199;28;20054;-80
2021/03/02 01:21:20;;;;;;;13.10;10.27;;;2.10;82.70;;;;;;6186217;28;20101;-79
2021/03/02 01:24:22;;;;;;;14.33;8.37;;;2.10;82.90;;;;;;6186580;28;20061;-79
2021/03/02 01:27:23;;;;;;;13.47;8.67;;;2.00;83.10;;;;;;6186824;28;20059;-80
2021/03/02 01:30:26;;;;;;;9.23;7.10;;;2.00;83.30;;;;;;6186174;28;20078;-79
2021/03/02 01:33:27;;;;;;;13.73;8.40;;;2.00;83.60;;;;;;6185418;28;20069;-80
2021/03/02 01:36:29;;;;;;;12.97;7.73;;;1.90;83.70;;;;;;6186856;28;20046;-79
2021/03/02 01:39:31;;;;;;;8.93;7.73;;;1.90;83.90;;;;;;6185654;28;20046;-79
2021/03/02 01:42:32;;;;;;;12.33;7.50;;;1.90;83.80;;;;;;6185775;28;20438;-79
2021/03/02 01:45:36;;;;;;;11.57;8.17;;;1.80;84.00;;;;;;6185129;28;20050;-79
2021/03/02 01:48:38;;;;;;;13.93;8.53;;;1.80;84.30;;;;;;6183339;28;20043;-78
2021/03/02 01:51:39;;;;;;;16.50;8.97;;;1.70;84.20;;;;;;6183694;28;20047;-80
2021/03/02 01:54:41;;;;;;;14.93;9.57;;;1.70;84.60;;;;;;6184637;28;20047;-79
2021/03/02 01:57:42;;;;;;;14.40;10.07;;;1.70;84.30;;;;;;6184176;28;20055;-79
2021/03/02 02:00:46;;;;;;;13.83;9.53;;;1.60;84.40;;;;;;6186709;28;20155;-79
2021/03/02 02:03:52;;;;;;;23.27;9.33;;;1.60;85.00;;;;;;6185525;28;20041;-79
2021/03/02 02:06:58;;;;;;;10.97;8.10;;;1.60;85.00;;;;;;6183848;28;20123;-79
2021/03/02 02:10:04;;;;;;;13.23;9.23;;;1.60;85.10;;;;;;6182885;28;20175;-78
2021/03/02 02:13:09;;;;;;;17.10;9.73;;;1.50;85.10;;;;;;6183623;28;20067;-79
2021/03/02 02:16:13;;;;;;;14.60;9.07;;;1.50;85.20;;;;;;6183833;28;20046;-79
2021/03/02 02:19:34;;;;;;;13.93;10.00;;;1.40;85.90;;;;;;6185670;28;20086;-78
2021/03/02 02:23:07;;;;;;;10.23;7.77;;;1.30;85.20;;;;;;6183682;28;20050;-80
2021/03/02 02:26:19;;;;;;;12.90;9.40;;;1.20;85.30;;;;;;6184020;28;20055;-80
2021/03/02 02:29:25;;;;;;;13.40;8.97;;;1.20;85.70;;;;;;6187706;28;20532;-80
2021/03/02 02:32:28;;;;;;;14.80;9.80;;;1.20;86.00;;;;;;6188299;28;20046;-79
2021/03/02 02:35:31;;;;;;;18.23;10.83;;;1.10;86.00;;;;;;6187112;28;20117;-79
2021/03/02 02:38:33;;;;;;;15.47;11.40;;;1.00;86.20;;;;;;6185467;28;20157;-80
2021/03/02 02:41:35;;;;;;;17.47;10.67;;;1.00;86.60;;;;;;6188071;28;20043;-79
2021/03/02 02:44:38;;;;;;;13.07;9.50;;;0.90;86.60;;;;;;6184267;28;20062;-79
2021/03/02 02:47:39;;;;;;;20.10;11.87;;;0.80;86.80;;;;;;6186945;28;20070;-79
2021/03/02 02:50:41;;;;;;;18.87;10.57;;;0.80;87.10;;;;;;6185111;28;20492;-80
2021/03/02 02:53:43;;;;;;;15.97;10.27;;;0.70;87.20;;;;;;6185868;28;20085;-79
2021/03/02 02:56:46;;;;;;;16.40;8.80;;;0.70;87.20;;;;;;6186030;28;20138;-79
2021/03/02 02:59:50;;;;;;;14.00;9.00;;;0.70;87.70;;;;;;6184770;28;20505;-80
2021/03/02 03:02:55;;;;;;;18.90;11.20;;;0.70;87.90;;;;;;6184386;28;20082;-79
2021/03/02 03:06:00;;;;;;;13.63;9.43;;;0.60;87.90;;;;;;6184852;28;20043;-80
2021/03/02 03:09:04;;;;;;;21.53;11.03;;;0.50;88.20;;;;;;6187471;28;20042;-80
2021/03/02 03:12:08;;;;;;;12.03;8.87;;;0.50;88.70;;;;;;6187284;28;20097;-80
2021/03/02 03:15:14;;;;;;;16.17;10.13;;;0.40;88.90;;;;;;6187068;28;20047;-80
2021/03/02 03:18:18;;;;;;;15.57;9.93;;;0.40;89.00;;;;;;6187016;28;20667;-80
2021/03/02 03:21:20;;;;;;;16.23;9.77;;;0.30;89.50;;;;;;6187561;28;20089;-80
2021/03/02 03:24:23;;;;;;;16.53;9.63;;;0.40;90.00;;;;;;6185800;28;20106;-79
2021/03/02 03:27:27;;;;;;;14.37;10.10;;;0.40;89.80;;;;;;6186307;28;20066;-79
2021/03/02 03:30:32;;;;;;;17.37;10.37;;;0.30;89.60;;;;;;6187080;28;20051;-78
2021/03/02 03:33:34;;;;;;;24.13;10.57;;;0.30;89.70;;;;;;6186988;28;20065;-80
2021/03/02 03:36:37;;;;;;;12.33;9.37;;;0.30;89.90;;;;;;6183913;28;20050;-80
2021/03/02 03:39:38;;;;;;;15.23;8.70;;;0.30;90.00;;;;;;6186137;28;20503;-80
2021/03/02 03:42:40;;;;;;;14.37;10.23;;;0.30;89.90;;;;;;6186155;28;20051;-79
2021/03/02 03:45:42;;;;;;;14.33;9.90;;;0.40;90.00;;;;;;6186239;28;20054;-80
2021/03/02 03:48:43;;;;;;;14.60;10.13;;;0.30;89.80;;;;;;6186182;28;20050;-80
2021/03/02 03:51:46;;;;;;;15.67;10.33;;;0.30;89.80;;;;;;6183423;28;20069;-79
2021/03/02 03:54:49;;;;;;;17.47;9.63;;;0.30;90.10;;;;;;6186728;28;20050;-79
2021/03/02 03:57:50;;;;;;;18.63;11.53;;;0.30;90.00;;;;;;6186112;28;20070;-80
2021/03/02 04:00:54;;;;;;;17.90;11.87;;;0.20;90.10;;;;;;6189886;28;20051;-79
2021/03/02 04:03:56;;;;;;;16.97;10.07;;;0.20;90.20;;;;;;6188848;28;20042;-80
2021/03/02 04:06:58;;;;;;;16.53;9.67;;;0.20;90.20;;;;;;6187784;28;20417;-80
2021/03/02 04:10:00;;;;;;;16.17;9.03;;;0.20;90.30;;;;;;6186810;28;20051;-80
2021/03/02 04:13:09;;;;;;;12.43;9.17;;;0.10;90.30;;;;;;6186330;28;20043;-81
2021/03/02 04:16:11;;;;;;;14.97;8.77;;;0.20;90.30;;;;;;6186034;28;20073;-80
2021/03/02 04:19:13;;;;;;;13.30;8.83;;;0.20;90.30;;;;;;6183646;28;20055;-79
2021/03/02 04:22:14;;;;;;;17.90;11.80;;;0.10;90.20;;;;;;6184810;28;20051;-79
2021/03/02 04:25:16;;;;;;;15.57;10.27;;;0.10;90.30;;;;;;6183068;28;20069;-79
2021/03/02 04:28:17;;;;;;;16.97;9.80;;;0.10;90.40;;;;;;6185538;28;20074;-80
2021/03/02 04:31:20;;;;;;;17.13;11.00;;;0.10;90.40;;;;;;6189787;28;20505;-80
2021/03/02 04:34:21;;;;;;;18.33;12.23;;;0.00;90.50;;;;;;6192543;28;20118;-80
2021/03/02 04:37:22;;;;;;;17.37;10.43;;;0.00;90.50;;;;;;6186517;28;20054;-79
2021/03/02 04:40:24;;;;;;;14.97;8.73;;;0.00;90.60;;;;;;6182215;28;20057;-79
2021/03/02 04:43:25;;;;;;;16.33;10.57;;;0.00;90.50;;;;;;6181148;28;20069;-80
2021/03/02 04:46:27;;;;;;;16.23;11.27;;;0.00;90.50;;;;;;6179495;28;20054;-79
2021/03/02 04:49:28;;;;;;;16.47;9.67;;;-0.10;90.70;;;;;;6181831;28;20057;-79
2021/03/02 04:52:30;;;;;;;13.63;9.97;;;-0.10;90.80;;;;;;6184512;28;20075;-79
2021/03/02 04:55:31;;;;;;;20.37;11.23;;;-0.10;91.00;;;;;;6189011;28;20103;-79
2021/03/02 04:58:32;;;;;;;17.33;11.53;;;-0.10;91.10;;;;;;6190972;28;20050;-79
2021/03/02 05:01:35;;;;;;;15.43;10.13;;;-0.10;91.00;;;;;;6191200;28;20057;-79
2021/03/02 05:04:36;;;;;;;15.23;10.70;;;-0.10;91.00;;;;;;6188518;28;20117;-78
2021/03/02 05:07:37;;;;;;;19.33;12.40;;;-0.10;90.90;;;;;;6193623;28;20047;-79
2021/03/02 05:10:39;;;;;;;18.07;11.67;;;-0.10;91.00;;;;;;6192945;28;20078;-79
2021/03/02 05:13:40;;;;;;;13.83;11.67;;;-0.10;91.10;;;;;;6192314;28;20051;-79
2021/03/02 05:16:42;;;;;;;16.23;11.60;;;-0.10;91.00;;;;;;6193654;28;20460;-79
2021/03/02 05:19:43;;;;;;;15.23;10.27;;;-0.20;91.10;;;;;;6191431;28;20082;-79
2021/03/02 05:22:45;;;;;;;15.53;10.10;;;-0.30;91.40;;;;;;6198872;28;20051;-79
2021/03/02 05:25:46;;;;;;;19.33;10.97;;;-0.30;91.30;;;;;;6196465;28;20633;-79
2021/03/02 05:28:48;;;;;;;16.60;11.30;;;-0.30;91.20;;;;;;6197723;28;20074;-79
2021/03/02 05:31:50;;;;;;;20.27;12.63;;;-0.40;91.50;;;;;;6211353;28;20053;-79
2021/03/02 05:34:51;;;;;;;22.43;12.13;;;-0.40;91.50;;;;;;6211009;28;20046;-79
2021/03/02 05:37:52;;;;;;;20.50;12.17;;;-0.40;91.70;;;;;;6202521;28;20052;-77
2021/03/02 05:40:54;;;;;;;18.57;11.77;;;-0.40;91.70;;;;;;6201968;28;20046;-78
2021/03/02 05:43:56;;;;;;;17.80;11.83;;;-0.50;91.80;;;;;;6201540;28;20520;-78
2021/03/02 05:46:59;;;;;;;16.50;10.93;;;-0.40;91.80;;;;;;6202109;28;20151;-78
2021/03/02 05:50:01;;;;;;;19.10;10.60;;;-0.40;91.80;;;;;;6201954;28;20050;-78
2021/03/02 05:53:03;;;;;;;16.97;11.47;;;-0.40;91.90;;;;;;6201579;28;20064;-78
2021/03/02 05:56:06;;;;;;;21.03;13.23;;;-0.40;91.70;;;;;;6201353;28;20073;-79
2021/03/02 05:59:08;;;;;;;22.30;11.50;;;-0.50;91.70;;;;;;6201836;28;20054;-77
2021/03/02 06:02:10;;;;;;;21.17;13.83;;;-0.50;91.90;;;;;;6202959;28;20129;-78
2021/03/02 06:05:14;;;;;;;17.27;10.83;;;-0.50;92.10;;;;;;6201239;28;20042;-78
2021/03/02 06:08:16;;;;;;;17.87;12.83;;;-0.50;92.00;;;;;;6201505;28;20146;-79
2021/03/02 06:11:28;;;;;;;19.27;12.03;;;-0.60;92.00;;;;;;6200946;28;20069;-78
2021/03/02 06:14:32;;;;;;;21.43;14.33;;;-0.60;92.00;;;;;;6203578;28;20113;-78
2021/03/02 06:17:34;;;;;;;18.80;13.07;;;-0.60;92.20;;;;;;6208192;28;20132;-79
2021/03/02 06:20:36;;;;;;;16.03;11.17;;;-0.50;92.20;;;;;;6208188;28;20070;-78
2021/03/02 06:23:46;;;;;;;18.67;11.60;;;-0.50;92.30;;;;;;6207742;28;20518;-79
2021/03/02 06:27:06;;;;;;;26.17;14.60;;;-0.50;92.30;;;;;;6208646;28;20125;-79
2021/03/02 06:30:12;;;;;;;24.47;15.07;;;-0.50;92.10;;;;;;6208730;28;20054;-79
2021/03/02 06:33:18;;;;;;;19.53;11.73;;;-0.50;92.30;;;;;;6208209;28;20165;-78
2021/03/02 06:36:19;;;;;;;28.47;14.47;;;-0.40;92.30;;;;;;6208530;28;20720;-78
2021/03/02 06:39:29;;;;;;;18.47;11.20;;;-0.30;92.60;;;;;;6208105;28;20054;-78
2021/03/02 06:42:36;;;;;;;22.40;12.83;;;-0.30;92.30;;;;;;6208005;28;20062;-79
2021/03/02 06:45:49;;;;;;;23.17;13.40;;;-0.20;92.40;;;;;;6206355;28;20049;-78
2021/03/02 06:48:52;;;;;;;27.03;12.57;;;-0.20;92.40;;;;;;6207038;28;20046;-78
2021/03/02 06:51:54;;;;;;;21.80;13.37;;;-0.10;92.40;;;;;;6207486;28;20486;-79
2021/03/02 06:54:55;;;;;;;19.60;12.33;;;0.00;92.60;;;;;;6206974;28;20046;-79
2021/03/02 06:58:16;;;;;;;16.90;10.43;;;0.10;92.60;;;;;;6206408;28;20397;-79
2021/03/02 07:01:18;;;;;;;18.97;12.13;;;0.20;92.40;;;;;;6201617;28;20050;-76
2021/03/02 07:04:22;;;;;;;24.10;12.23;;;0.30;92.30;;;;;;6180228;28;20188;-78
2021/03/02 07:07:25;;;;;;;20.17;12.70;;;0.50;92.20;;;;;;6181057;28;20505;-79
2021/03/02 07:10:27;;;;;;;15.20;11.63;;;0.60;92.00;;;;;;6181456;28;20050;-79
2021/03/02 07:13:31;;;;;;;19.37;12.57;;;0.80;91.80;;;;;;6181570;28;20050;-79
2021/03/02 07:16:35;;;;;;;23.73;12.20;;;1.00;91.70;;;;;;6182349;28;20111;-79
2021/03/02 07:19:40;;;;;;;14.67;10.33;;;1.10;91.40;;;;;;6181870;28;20047;-78
2021/03/02 07:22:45;;;;;;;18.63;12.33;;;1.40;91.20;;;;;;6183138;28;20054;-79
2021/03/02 07:25:48;;;;;;;16.33;10.57;;;1.60;91.00;;;;;;6182309;28;20042;-79
2021/03/02 07:28:50;;;;;;;17.80;11.80;;;1.80;90.50;;;;;;6182095;28;20043;-79
2021/03/02 07:31:52;;;;;;;22.13;11.87;;;2.10;90.10;;;;;;6182362;28;20126;-79
2021/03/02 07:34:55;;;;;;;14.03;9.53;;;2.30;89.60;;;;;;6181148;28;20085;-79
2021/03/02 07:38:12;;;;;;;18.03;12.17;;;2.60;88.80;;;;;;6182183;28;20053;-79
2021/03/02 07:41:34;;;;;;;28.87;11.67;;;3.00;87.70;;;;;;6158416;28;20075;-79
2021/03/02 07:45:05;;;;;;;19.93;13.63;;;3.40;86.70;;;;;;6155681;28;20087;-76
2021/03/02 07:48:28;;;;;;;41.97;13.83;;;3.70;85.40;;;;;;6150901;28;20110;-79
2021/03/02 07:51:30;;;;;;;20.90;10.23;;;4.20;84.60;;;;;;6152599;28;20121;-77
2021/03/02 07:54:33;;;;;;;21.20;9.93;;;4.60;83.70;;;;;;6156547;28;20528;-79
2021/03/02 07:57:34;;;;;;;19.35;11.88;;;5.00;82.00;;;;;;6153981;28;20122;-79
2021/03/02 08:00:36;;;;;;;21.92;14.07;;;5.40;81.20;;;;;;6153807;28;20075;-77
2021/03/02 08:03:37;;;;;;;31.42;17.40;;;5.80;79.70;;;;;;6154496;28;20049;-78
2021/03/02 08:06:39;;;;;;;23.75;14.73;;;6.10;78.50;;;;;;6157609;28;20047;-77
2021/03/02 08:09:41;;;;;;;19.13;13.15;;;6.40;76.90;;;;;;6157416;28;20054;-78
2021/03/02 08:12:42;;;;;;;22.83;13.98;;;6.70;76.30;;;;;;6162099;28;20043;-78
2021/03/02 08:15:43;;;;;;;23.98;14.77;;;6.80;75.40;;;;;;6180849;28;20043;-78
2021/03/02 08:18:45;;;;;;;23.00;14.20;;;7.10;74.30;;;;;;6178171;28;20061;-79
2021/03/02 08:21:47;;;;;;;19.92;13.18;;;7.30;73.30;;;;;;6187397;28;20042;-78
2021/03/02 08:24:49;;;;;;;28.42;13.43;;;7.60;72.10;;;;;;6200032;28;20504;-78
2021/03/02 08:27:55;;;;;;;23.05;13.93;;;7.80;71.20;;;;;;6190328;28;20048;-79
2021/03/02 08:30:57;;;;;;;19.35;13.23;;;7.90;70.30;;;;;;6186293;28;20061;-78
2021/03/02 08:34:00;;;;;;;27.08;14.07;;;8.00;69.70;;;;;;6185642;28;20055;-79
2021/03/02 08:37:03;;;;;;;20.92;13.02;;;8.20;69.20;;;;;;6185376;28;20074;-80
2021/03/02 08:40:05;;;;;;;23.23;14.50;;;8.30;68.80;;;;;;6184408;28;20424;-80
2021/03/02 08:43:09;;;;;;;26.77;13.93;;;8.50;68.40;;;;;;6185708;28;20055;-79
2021/03/02 08:46:10;;;;;;;22.88;15.55;;;8.80;67.40;;;;;;6183847;28;20074;-79
2021/03/02 08:49:13;;;;;;;26.13;14.32;;;9.10;66.00;;;;;;6183243;28;20070;-78
2021/03/02 08:52:15;;;;;;;16.70;13.90;;;9.30;65.30;;;;;;6183529;28;20047;-78
2021/03/02 08:55:16;;;;;;;19.65;13.00;;;9.50;65.00;;;;;;6182746;28;20046;-79
2021/03/02 08:58:26;;;;;;;19.35;13.68;;;9.70;64.40;;;;;;6183494;28;20058;-80
2021/03/02 09:01:30;;;;;;;34.15;13.95;;;9.80;63.40;;;;;;6182312;28;20066;-80
2021/03/02 09:04:32;;;;;;;21.70;14.40;;;10.10;63.00;;;;;;6182803;28;20051;-79
2021/03/02 09:07:35;;;;;;;19.13;12.90;;;10.40;62.50;;;;;;6184105;28;20101;-81
2021/03/02 09:10:36;;;;;;;24.40;14.95;;;10.60;61.90;;;;;;6183570;28;20082;-82
2021/03/02 09:13:39;;;;;;;17.80;12.07;;;10.70;61.40;;;;;;6182858;28;20093;-80
2021/03/02 09:16:43;;;;;;;18.52;11.85;;;10.90;60.10;;;;;;6182427;28;20081;-80
2021/03/02 09:19:44;;;;;;;19.40;12.00;;;11.20;59.20;;;;;;6184977;28;20047;-80
2021/03/02 09:22:46;;;;;;;20.58;13.80;;;11.50;57.60;;;;;;6186002;28;20071;-80
2021/03/02 09:25:51;;;;;;;22.33;13.95;;;11.70;57.40;;;;;;6185824;28;20043;-80
2021/03/02 09:28:54;;;;;;;19.30;12.82;;;11.80;57.10;;;;;;6187069;28;20410;-79
2021/03/02 09:31:58;;;;;;;16.50;11.82;;;11.80;56.30;;;;;;6187460;28;20395;-79
2021/03/02 09:35:01;;;;;;;20.30;11.48;;;11.90;56.70;;;;;;6188739;28;20135;-79
2021/03/02 09:38:03;;;;;;;22.17;14.75;;;12.10;56.10;;;;;;6188014;28;20058;-81
2021/03/02 09:41:05;;;;;;;19.10;12.82;;;12.30;55.80;;;;;;6189710;28;20062;-82
2021/03/02 09:44:17;;;;;;;17.58;13.63;;;12.60;55.30;;;;;;6200577;28;20559;-79
2021/03/02 09:47:24;;;;;;;16.27;13.02;;;12.80;54.70;;;;;;6181548;28;20094;-79
2021/03/02 09:50:34;;;;;;;20.20;12.77;;;12.90;54.20;;;;;;6181978;28;20054;-78
2021/03/02 09:53:37;;;;;;;18.85;12.73;;;13.10;53.90;;;;;;6182574;28;20043;-81
2021/03/02 09:56:38;;;;;;;13.85;11.18;;;13.10;53.60;;;;;;6181860;28;20401;-80
2021/03/02 09:59:40;;;;;;;16.75;13.38;;;13.30;53.20;;;;;;6181120;28;20046;-81
2021/03/02 10:02:49;;;;;;;18.90;13.52;;;13.40;52.20;;;;;;6182306;28;20136;-79
2021/03/02 10:05:57;;;;;;;16.70;12.68;;;13.50;52.40;;;;;;6158906;28;20585;-80
2021/03/02 10:09:00;;;;;;;18.70;12.35;;;13.60;52.20;;;;;;6158048;28;20084;-80
2021/03/02 10:12:10;;;;;;;18.48;13.95;;;13.80;51.40;;;;;;6173315;28;20509;-82
2021/03/02 10:15:22;;;;;;;19.27;12.93;;;14.10;51.20;;;;;;6186377;28;20053;-84
2021/03/02 10:18:24;;;;;;;15.93;13.23;;;14.30;50.50;;;;;;6185184;28;20089;-82
2021/03/02 10:21:28;;;;;;;15.18;11.13;;;14.30;49.90;;;;;;6182988;28;20049;-81
2021/03/02 10:24:35;;;;;;;16.50;10.45;;;14.50;49.70;;;;;;6181231;28;20070;-80
2021/03/02 10:27:36;;;;;;;17.75;13.20;;;14.50;48.90;;;;;;6183114;28;20046;-83
2021/03/02 10:30:38;;;;;;;18.92;12.98;;;14.60;49.20;;;;;;6183292;28;20089;-82
2021/03/02 10:33:39;;;;;;;15.50;11.80;;;14.60;48.90;;;;;;6182847;28;20061;-84
2021/03/02 10:36:42;;;;;;;18.05;13.25;;;14.70;49.00;;;;;;6182383;28;20054;-80
2021/03/02 10:39:44;;;;;;;17.58;13.02;;;14.80;48.60;;;;;;6183419;28;20067;-80
2021/03/02 10:42:46;;;;;;;18.52;14.68;;;15.00;47.90;;;;;;6182333;28;20105;-79
2021/03/02 10:45:47;;;;;;;17.42;13.20;;;15.30;47.70;;;;;;6203276;28;20058;-80
2021/03/02 10:48:49;;;;;;;18.63;12.93;;;15.40;47.30;;;;;;6205644;28;20129;-80
2021/03/02 10:51:50;;;;;;;16.15;13.10;;;15.60;47.20;;;;;;6206847;28;20125;-80
2021/03/02 10:54:52;;;;;;;17.35;13.95;;;15.80;46.50;;;;;;6206647;28;20512;-81
2021/03/02 10:57:54;;;;;;;20.55;13.40;;;15.80;46.40;;;;;;6204998;28;20050;-80
2021/03/02 11:00:56;;;;;;;15.65;12.38;;;16.00;45.70;;;;;;6206201;28;20456;-80
2021/03/02 11:03:58;;;;;;;17.60;13.00;;;16.00;46.00;;;;;;6205700;28;20073;-79
2021/03/02 11:07:00;;;;;;;18.02;14.23;;;16.30;45.40;;;;;;6206251;28;20046;-81
2021/03/02 11:10:03;;;;;;;15.50;12.30;;;16.30;45.10;;;;;;6204674;28;20109;-80
2021/03/02 11:13:04;;;;;;;15.63;11.35;;;16.50;45.70;;;;;;6204326;28;20050;-79
2021/03/02 11:16:06;;;;;;;19.70;13.13;;;16.60;45.40;;;;;;6187362;28;20097;-79
2021/03/02 11:19:07;;;;;;;16.02;11.27;;;16.80;46.10;;;;;;6185602;28;20424;-80
2021/03/02 11:22:08;;;;;;;17.48;12.77;;;17.00;44.90;;;;;;6172188;28;20175;-79
2021/03/02 11:25:17;;;;;;;14.95;11.45;;;17.10;44.80;;;;;;6173707;28;20046;-80
2021/03/02 11:28:19;;;;;;;18.08;12.43;;;17.40;47.50;;;;;;6163619;28;20041;-80
2021/03/02 11:31:20;;;;;;;17.65;13.15;;;17.80;43.80;;;;;;6190928;28;20148;-81
2021/03/02 11:34:22;;;;;;;19.83;12.55;;;17.70;43.00;;;;;;6169791;28;20074;-79
2021/03/02 11:37:23;;;;;;;21.85;12.32;;;17.70;44.00;;;;;;6165674;28;20042;-80
2021/03/02 11:40:27;;;;;;;29.83;14.48;;;17.70;45.00;;;;;;6174923;28;20151;-80
2021/03/02 11:43:28;;;;;;;28.02;12.95;;;17.80;43.60;;;;;;6181256;28;20499;-80
2021/03/02 11:46:29;;;;;;;18.25;13.02;;;17.80;43.40;;;;;;6185953;28;20050;-82
2021/03/02 11:49:31;;;;;;;18.10;13.98;;;18.00;43.30;;;;;;6181689;28;20632;-82
2021/03/02 11:52:32;;;;;;;18.75;13.80;;;18.00;43.10;;;;;;6173087;28;20577;-82
2021/03/02 11:55:35;;;;;;;17.88;13.25;;;18.10;42.80;;;;;;6178284;28;20051;-82
2021/03/02 11:58:36;;;;;;;15.88;12.27;;;18.20;42.50;;;;;;6185504;28;20133;-82
2021/03/02 12:01:37;;;;;;;18.60;13.25;;;18.30;42.10;;;;;;6179452;28;20057;-81
2021/03/02 12:04:39;;;;;;;18.95;13.48;;;18.30;41.70;;;;;;6188228;28;20047;-82
2021/03/02 12:07:40;;;;;;;22.17;13.80;;;18.40;41.80;;;;;;6183919;28;20061;-80
2021/03/02 12:10:42;;;;;;;21.33;13.20;;;18.50;41.40;;;;;;6182796;28;20101;-81
2021/03/02 12:13:44;;;;;;;17.02;13.50;;;18.60;41.10;;;;;;6170945;28;20053;-82
2021/03/02 12:16:45;;;;;;;17.13;13.35;;;18.90;41.10;;;;;;6171137;28;20043;-80
2021/03/02 12:19:46;;;;;;;18.73;14.10;;;18.90;40.60;;;;;;6181311;28;20539;-81
2021/03/02 12:22:48;;;;;;;21.35;12.77;;;19.10;40.00;;;;;;6190348;28;20050;-80
2021/03/02 12:25:50;;;;;;;20.05;14.18;;;19.20;39.70;;;;;;6167441;28;20109;-79
2021/03/02 12:28:51;;;;;;;21.73;14.48;;;19.20;39.00;;;;;;6171243;28;20057;-78
2021/03/02 12:31:53;;;;;;;22.77;15.00;;;19.40;38.90;;;;;;6168587;28;20043;-79
2021/03/02 12:34:54;;;;;;;25.20;14.00;;;19.50;39.10;;;;;;6170662;28;20074;-78
2021/03/02 12:37:55;;;;;;;18.10;13.23;;;19.50;38.60;;;;;;6171790;28;20034;-79
2021/03/02 12:40:58;;;;;;;19.40;12.77;;;19.50;38.70;;;;;;6178313;28;20066;-79
2021/03/02 12:43:59;;;;;;;41.50;16.05;;;19.50;38.70;;;;;;6181087;28;20425;-79
2021/03/02 12:47:00;;;;;;;21.80;14.40;;;19.60;38.40;;;;;;6179733;28;20054;-82
2021/03/02 12:50:07;;;;;;;19.90;13.25;;;19.70;38.60;;;;;;6185318;28;20552;-80
2021/03/02 12:53:09;;;;;;;21.07;12.60;;;19.80;38.30;;;;;;6173680;28;20130;-79
2021/03/02 12:56:11;;;;;;;19.65;13.10;;;19.90;38.00;;;;;;6185085;28;20513;-80
2021/03/02 12:59:12;;;;;;;17.83;14.63;;;19.90;38.00;;;;;;6181700;28;20082;-79
2021/03/02 13:02:14;;;;;;;18.38;12.85;;;20.00;38.10;;;;;;6171109;28;20055;-80
2021/03/02 13:05:18;;;;;;;20.10;13.60;;;20.20;38.00;;;;;;6172993;28;20050;-80
2021/03/02 13:08:19;;;;;;;24.23;13.30;;;20.20;37.80;;;;;;6176957;28;20060;-81
2021/03/02 13:11:22;;;;;;;20.88;13.82;;;20.20;38.00;;;;;;6176807;28;20130;-78
2021/03/02 13:14:23;;;;;;;20.10;13.02;;;20.20;37.80;;;;;;6180964;28;20047;-80
2021/03/02 13:17:25;;;;;;;17.95;13.30;;;20.30;37.60;;;;;;6181747;28;20061;-80
2021/03/02 13:20:27;;;;;;;17.23;12.48;;;20.30;37.80;;;;;;6179794;28;20055;-80
2021/03/02 13:23:28;;;;;;;24.73;13.25;;;20.40;37.60;;;;;;6166422;28;20401;-81
2021/03/02 13:26:35;;;;;;;23.02;14.50;;;20.40;37.10;;;;;;6173836;28;20062;-81
2021/03/02 13:29:40;;;;;;;22.63;12.80;;;20.40;36.60;;;;;;6181518;28;20129;-80
2021/03/02 13:32:45;;;;;;;21.60;13.95;;;20.50;36.50;;;;;;6188226;28;20043;-82
2021/03/02 13:35:47;;;;;;;21.73;12.15;;;20.50;37.10;;;;;;6188589;28;20058;-80
2021/03/02 13:38:49;;;;;;;16.00;12.70;;;20.50;37.00;;;;;;6176413;28;20116;-81
2021/03/02 13:41:53;;;;;;;16.80;12.23;;;20.50;36.30;;;;;;6190235;28;20075;-81
2021/03/02 13:44:54;;;;;;;21.90;13.93;;;20.60;35.30;;;;;;6176666;28;20058;-79
2021/03/02 13:47:57;;;;;;;22.17;15.65;;;20.50;36.70;;;;;;6183090;28;20061;-81
2021/03/02 13:50:59;;;;;;;20.98;14.68;;;20.40;37.20;;;;;;6186168;28;20495;-82
2021/03/02 13:54:02;;;;;;;20.40;12.55;;;20.50;37.20;;;;;;6173231;28;20464;-81
2021/03/02 13:57:05;;;;;;;20.08;13.75;;;20.60;37.00;;;;;;6181509;28;20133;-80
2021/03/02 14:00:12;;;;;;;18.58;12.80;;;20.60;37.30;;;;;;6187424;28;20070;-81
2021/03/02 14:03:16;;;;;;;17.60;11.48;;;20.70;36.60;;;;;;6174366;28;20054;-81
2021/03/02 14:06:18;;;;;;;18.83;12.57;;;20.80;36.20;;;;;;6171618;28;20054;-81
2021/03/02 14:09:22;;;;;;;19.35;13.05;;;20.80;35.30;;;;;;6178901;28;20043;-82
2021/03/02 14:12:24;;;;;;;18.00;12.07;;;20.80;35.80;;;;;;6174114;28;20045;-81
2021/03/02 14:15:26;;;;;;;19.25;12.07;;;20.80;36.10;;;;;;6172856;28;20600;-80
2021/03/02 14:18:27;;;;;;;17.58;13.07;;;20.60;35.50;;;;;;6201664;28;20070;-78
2021/03/02 14:21:31;;;;;;;17.45;11.18;;;20.40;35.90;;;;;;6189131;28;20417;-79
2021/03/02 14:24:33;;;;;;;21.05;13.07;;;20.30;34.70;;;;;;6194804;28;20074;-79
2021/03/02 14:27:36;;;;;;;16.70;11.95;;;19.60;35.20;;;;;;6184827;28;20070;-80
2021/03/02 14:30:37;;;;;;;21.23;12.23;;;19.20;36.60;;;;;;6186070;28;20134;-79
2021/03/02 14:33:39;;;;;;;50.50;36.80;;;19.20;37.00;;;;;;6169400;28;20049;-79
2021/03/02 14:36:41;;;;;;;18.23;14.02;;;19.60;36.90;;;;;;6168010;28;20050;-80
2021/03/02 14:39:43;;;;;;;17.30;12.63;;;19.90;37.10;;;;;;6185065;28;20555;-78
2021/03/02 14:42:51;;;;;;;23.45;10.95;;;19.90;36.50;;;;;;6177090;28;20055;-80
2021/03/02 14:45:55;;;;;;;13.02;9.73;;;19.80;36.20;;;;;;6181553;28;20205;-79
2021/03/02 14:49:01;;;;;;;17.67;11.52;;;19.70;35.30;;;;;;6175271;28;20043;-79
2021/03/02 14:52:02;;;;;;;18.55;10.43;;;19.90;35.20;;;;;;6176890;28;20062;-78
2021/03/02 14:55:06;;;;;;;18.63;10.80;;;19.80;34.80;;;;;;6186190;28;20054;-79
2021/03/02 14:58:09;;;;;;;16.25;10.52;;;19.90;35.50;;;;;;6190453;28;20516;-79
2021/03/02 15:01:10;;;;;;;15.40;12.52;;;20.00;33.90;;;;;;6179671;28;20043;-81
2021/03/02 15:04:13;;;;;;;20.75;12.68;;;19.70;35.10;;;;;;6182747;28;20389;-81
2021/03/02 15:07:18;;;;;;;14.40;9.77;;;19.50;34.60;;;;;;6172607;28;20217;-81
2021/03/02 15:10:20;;;;;;;15.38;10.23;;;19.20;35.20;;;;;;6174051;28;20051;-81
2021/03/02 15:13:23;;;;;;;17.95;10.10;;;19.10;35.50;;;;;;6167877;28;20078;-81
2021/03/02 15:16:24;;;;;;;19.85;10.52;;;19.00;35.60;;;;;;6169774;28;20043;-81
2021/03/02 15:19:27;;;;;;;16.33;11.40;;;18.80;36.20;;;;;;6180974;28;20042;-82
2021/03/02 15:22:31;;;;;;;26.00;12.30;;;18.70;36.60;;;;;;6181503;28;20485;-82
2021/03/02 15:25:32;;;;;;;16.38;10.38;;;18.60;37.20;;;;;;6169848;28;20039;-80
2021/03/02 15:28:37;;;;;;;21.63;10.82;;;18.50;37.40;;;;;;6173420;28;20043;-81
2021/03/02 15:31:39;;;;;;;31.10;25.58;;;18.30;37.00;;;;;;6181225;28;20061;-81
2021/03/02 15:34:42;;;;;;;18.95;12.20;;;18.10;37.10;;;;;;6173004;28;20052;-81
2021/03/02 15:37:45;;;;;;;16.92;9.95;;;17.90;37.80;;;;;;6184042;28;20062;-81